KFKR

Details ICAO KFKR
Name FRANKFORT MUNI
Region United States
Timezone America/Indiana/Indianapolis (UTC-5.0)
Plans Departing 2
Arriving 4
Stats Elevation 861 ft / 262 m (AMSL)
Location 40.273799° -86.563265°
Runways 2
Magnetic Variation 4.510° W
Sunrise 2017-12-14 13:02:41 UTC / 2017-12-14 08:02:41 Local
Sunset 2017-12-14 22:22:12 UTC / 2017-12-14 17:22:12 Local
Advertisement - Login to hide

Runways

ID Width Length Bearing (true) Bearing (mag) Surface Threshold Offset Overrun Length
04 70 ft / 21 m 2,529 ft / 771 m 34.09° 38.60° Asphalt 0 ft / 0 m 0 ft / 0 m
09 75 ft / 23 m 4,988 ft / 1,520 m 90.03° 94.54° Asphalt 0 ft / 0 m 0 ft / 0 m
22 70 ft / 21 m 2,529 ft / 771 m 214.10° 218.61° Asphalt 0 ft / 0 m 0 ft / 0 m
27 75 ft / 23 m 4,988 ft / 1,520 m 270.04° 274.55° Asphalt 0 ft / 0 m 0 ft / 0 m

Map

Weather


0- 5 10 15 20 25 30 35+ Temperature / ° C

Clouds and Precipitation
Forecast for 2017-12-14 18:00 UTC. Updated 29 minutes ago

Ground ~20,000 ft ~40,000 ft Winds

METAR

KFKR 141535Z AUTO 07007KT 10SM CLR M02/M09 A3006 RMK AO2 T10251092

TAF

Not found

Frequencies

Recorded 124.32 MHz AWOS 3
Unicom 123.00 MHz CTAF/UNICOM
Warning: Do not use this data for real-world aviation or navigation. No guarantee of current accuracy is given.